createdAt,value
2022-11-20T00:01:21.734Z,95.00
2022-11-20T00:03:48.938Z,94.90
2022-11-20T00:06:17.291Z,95.00
2022-11-20T00:08:43.931Z,95.20
2022-11-20T00:11:16.356Z,99.90
2022-11-20T00:13:46.929Z,99.90
2022-11-20T00:16:15.904Z,94.70
2022-11-20T00:18:43.184Z,95.20
2022-11-20T00:21:15.318Z,99.90
2022-11-20T00:23:42.391Z,99.90
2022-11-20T00:26:11.378Z,99.90
2022-11-20T00:28:38.038Z,95.90
2022-11-20T00:31:06.085Z,96.00
2022-11-20T00:33:32.290Z,96.10
2022-11-20T00:36:08.888Z,99.90
2022-11-20T00:38:35.691Z,99.90
2022-11-20T00:41:06.461Z,99.90
2022-11-20T00:43:33.400Z,99.90
2022-11-20T00:46:22.093Z,97.40
2022-11-20T00:48:48.326Z,99.90
2022-11-20T00:51:16.666Z,96.50
2022-11-20T00:53:43.162Z,99.90
2022-11-20T00:56:14.811Z,99.90
2022-11-20T00:58:42.513Z,99.90
2022-11-20T01:01:13.732Z,96.50
2022-11-20T01:03:42.025Z,99.90
2022-11-20T01:06:11.985Z,99.90
2022-11-20T01:08:38.333Z,99.90
2022-11-20T01:11:12.978Z,99.90
2022-11-20T01:13:39.816Z,95.80
2022-11-20T01:16:41.349Z,99.90
2022-11-20T01:19:12.196Z,96.20
2022-11-20T01:21:43.132Z,96.40
2022-11-20T01:24:14.101Z,96.20
2022-11-20T01:26:40.982Z,99.90
2022-11-20T01:29:07.893Z,96.20
2022-11-20T01:31:36.813Z,96.10
2022-11-20T01:34:08.543Z,96.20
2022-11-20T01:36:36.027Z,96.10
2022-11-20T01:39:04.664Z,95.80
2022-11-20T01:41:50.196Z,99.90
2022-11-20T01:44:19.731Z,96.20
2022-11-20T01:47:06.983Z,96.10
2022-11-20T01:49:46.241Z,95.70
2022-11-20T01:52:19.099Z,95.90
2022-11-20T01:54:53.987Z,95.70
2022-11-20T01:57:21.385Z,95.50
2022-11-20T01:59:52.244Z,95.50
2022-11-20T02:02:19.584Z,99.90
2022-11-20T02:04:45.728Z,95.50
2022-11-20T02:07:12.056Z,95.00
2022-11-20T02:09:38.366Z,95.00
2022-11-20T02:12:05.250Z,94.60
2022-11-20T02:14:31.397Z,94.60
2022-11-20T02:16:57.763Z,95.00
2022-11-20T02:19:30.220Z,95.30
2022-11-20T02:22:14.915Z,95.30
2022-11-20T02:24:41.220Z,95.20
2022-11-20T02:27:09.500Z,95.40
2022-11-20T02:29:56.081Z,95.40
2022-11-20T02:32:30.627Z,95.10
2022-11-20T02:34:57.214Z,95.00
2022-11-20T02:37:24.001Z,95.40
2022-11-20T02:39:52.340Z,95.40
2022-11-20T02:42:19.016Z,95.30
2022-11-20T02:44:45.419Z,95.30
2022-11-20T02:47:11.609Z,95.40
2022-11-20T02:49:37.748Z,95.30
2022-11-20T02:52:04.643Z,95.70
2022-11-20T02:54:31.118Z,95.60
2022-11-20T02:56:57.823Z,95.80
2022-11-20T02:59:24.379Z,95.60
2022-11-20T03:01:51.944Z,99.90
2022-11-20T03:04:18.081Z,99.90
2022-11-20T03:06:44.225Z,99.90
2022-11-20T03:09:10.369Z,99.90
2022-11-20T03:11:36.465Z,99.90
2022-11-20T03:14:04.269Z,99.90
2022-11-20T03:16:31.086Z,99.90
2022-11-20T03:18:57.748Z,99.90
2022-11-20T03:21:23.886Z,99.90
2022-11-20T03:23:50.058Z,99.90
2022-11-20T03:26:19.142Z,99.90
2022-11-20T03:29:19.800Z,99.90
2022-11-20T03:31:46.168Z,99.90
2022-11-20T03:34:12.711Z,94.60
2022-11-20T03:36:39.844Z,94.40
2022-11-20T03:39:06.487Z,99.90
2022-11-20T03:41:37.134Z,99.90
2022-11-20T03:44:04.498Z,99.90
2022-11-20T03:46:30.708Z,99.90
2022-11-20T03:48:57.230Z,99.90
2022-11-20T03:51:27.561Z,99.90
2022-11-20T03:53:55.233Z,94.60
2022-11-20T03:56:24.581Z,95.20
2022-11-20T03:58:50.801Z,99.90
2022-11-20T04:01:25.022Z,99.90
2022-11-20T04:03:53.126Z,99.90
2022-11-20T04:06:24.841Z,99.90
2022-11-20T04:08:53.799Z,99.90
2022-11-20T04:11:24.675Z,99.90
2022-11-20T04:13:53.910Z,99.90
2022-11-20T04:16:20.182Z,99.90
2022-11-20T04:18:46.569Z,96.90
2022-11-20T04:21:13.111Z,94.90
2022-11-20T04:23:40.573Z,95.90
2022-11-20T04:26:11.366Z,99.90
2022-11-20T04:28:38.114Z,94.80
2022-11-20T04:31:09.172Z,99.90
2022-11-20T04:33:35.808Z,99.90
2022-11-20T04:36:11.071Z,99.90
2022-11-20T04:38:37.238Z,98.40
2022-11-20T04:41:07.988Z,99.90
2022-11-20T04:46:02.308Z,95.60
2022-11-20T04:48:28.859Z,96.10
2022-11-20T04:50:55.168Z,99.90
2022-11-20T04:53:21.340Z,99.90
2022-11-20T04:58:14.653Z,99.90
2022-11-20T05:00:40.784Z,99.90
2022-11-20T05:03:07.124Z,99.90
2022-11-20T05:05:35.778Z,99.90
2022-11-20T05:10:29.341Z,98.70
2022-11-20T05:12:56.863Z,99.90
2022-11-20T05:17:52.898Z,99.90
2022-11-20T05:20:19.121Z,99.90
2022-11-20T05:22:45.228Z,99.90
2022-11-20T05:25:12.299Z,99.90
2022-11-20T05:27:38.990Z,95.70
2022-11-20T05:30:06.742Z,99.90
2022-11-20T05:32:33.803Z,99.90
2022-11-20T05:35:00.181Z,99.90
2022-11-20T05:45:00.748Z,99.90
2022-11-20T05:47:27.993Z,99.90
2022-11-20T05:49:54.325Z,99.90
2022-11-20T05:54:47.464Z,99.90
2022-11-20T06:09:28.333Z,99.90
2022-11-20T06:11:54.553Z,99.90
2022-11-20T06:14:20.695Z,99.90
2022-11-20T06:16:46.903Z,99.90
2022-11-20T06:19:13.053Z,98.50
2022-11-20T06:21:39.378Z,99.90
2022-11-20T06:24:06.705Z,99.90
2022-11-20T06:26:32.898Z,99.90
2022-11-20T06:28:59.055Z,99.90
2022-11-20T06:31:25.742Z,99.90
2022-11-20T06:33:52.258Z,95.40
2022-11-20T06:36:20.470Z,99.90
2022-11-20T06:38:47.069Z,99.90
2022-11-20T06:41:15.584Z,95.00
2022-11-20T06:43:42.055Z,95.00
2022-11-20T06:46:10.355Z,94.70
2022-11-20T06:48:36.547Z,95.70
2022-11-20T06:51:06.879Z,96.00
2022-11-20T06:53:33.110Z,95.30
2022-11-20T06:56:00.724Z,94.50
2022-11-20T06:58:28.745Z,92.40
2022-11-20T07:00:59.397Z,92.40
2022-11-20T07:03:25.683Z,93.20
2022-11-20T07:05:51.989Z,92.40
2022-11-20T07:08:18.749Z,92.50
2022-11-20T07:10:45.571Z,91.20
2022-11-20T07:13:11.690Z,91.60
2022-11-20T07:15:37.841Z,92.40
2022-11-20T07:18:04.024Z,93.30
2022-11-20T07:20:30.204Z,92.20
2022-11-20T07:22:57.951Z,91.60
2022-11-20T07:25:28.218Z,92.00
2022-11-20T07:27:58.838Z,93.90
2022-11-20T07:30:25.590Z,92.90
2022-11-20T07:32:52.962Z,92.40
2022-11-20T07:35:20.920Z,93.70
2022-11-20T07:37:48.988Z,94.90
2022-11-20T07:40:18.554Z,94.80
2022-11-20T07:42:54.793Z,97.10
2022-11-20T07:45:21.669Z,93.40
2022-11-20T07:47:48.636Z,96.70
2022-11-20T07:50:15.587Z,91.10
2022-11-20T07:52:41.831Z,88.70
2022-11-20T07:55:09.091Z,91.90
2022-11-20T07:57:35.407Z,92.50
2022-11-20T08:00:01.831Z,78.60
2022-11-20T08:02:28.257Z,77.20
2022-11-20T08:04:54.443Z,77.20
2022-11-20T08:07:21.218Z,73.60
2022-11-20T08:09:47.416Z,78.10
2022-11-20T08:12:37.271Z,70.10
2022-11-20T08:15:08.502Z,70.10
2022-11-20T08:17:39.024Z,70.00
2022-11-20T08:20:06.408Z,68.10
2022-11-20T08:22:32.854Z,70.40
2022-11-20T08:24:59.217Z,71.00
2022-11-20T08:27:25.650Z,70.50
2022-11-20T08:29:52.594Z,70.50
2022-11-20T08:32:18.932Z,68.90
2022-11-20T08:34:45.254Z,67.10
2022-11-20T08:37:12.212Z,68.50
2022-11-20T08:39:38.412Z,68.40
2022-11-20T08:42:08.544Z,69.10
2022-11-20T08:44:34.691Z,69.30
2022-11-20T08:47:01.463Z,67.50
2022-11-20T08:49:27.657Z,69.30
2022-11-20T08:51:55.807Z,66.60
2022-11-20T08:54:23.269Z,68.60
2022-11-20T08:56:49.804Z,66.90
2022-11-20T08:59:31.185Z,66.50
2022-11-20T09:01:58.860Z,66.70
2022-11-20T09:04:25.040Z,66.50
2022-11-20T09:06:52.742Z,67.70
2022-11-20T09:09:19.556Z,66.10
2022-11-20T09:11:46.088Z,67.40
2022-11-20T09:14:12.231Z,68.30
2022-11-20T09:16:38.716Z,70.20
2022-11-20T09:19:35.028Z,67.30
2022-11-20T09:22:02.353Z,68.90
2022-11-20T09:24:29.054Z,67.40
2022-11-20T09:26:56.205Z,68.00
2022-11-20T09:29:23.087Z,66.70
2022-11-20T09:31:49.923Z,66.50
2022-11-20T09:34:16.764Z,67.20
2022-11-20T09:36:43.335Z,68.40
2022-11-20T09:39:09.549Z,65.50
2022-11-20T09:43:15.348Z,67.90
2022-11-20T09:46:13.316Z,67.20
2022-11-20T09:52:23.076Z,66.10
2022-11-20T09:54:49.535Z,63.40
2022-11-20T09:57:21.553Z,62.60
2022-11-20T09:59:56.873Z,64.40
2022-11-20T10:05:56.635Z,61.90
2022-11-20T10:08:32.561Z,64.40
2022-11-20T10:14:25.479Z,63.50
2022-11-20T10:20:34.174Z,62.40
2022-11-20T10:23:26.390Z,64.10
2022-11-20T10:26:32.900Z,66.90
2022-11-20T10:29:19.076Z,67.90
2022-11-20T10:31:47.722Z,63.70
2022-11-20T10:34:54.234Z,66.90
2022-11-20T10:37:23.735Z,66.90
2022-11-20T10:40:18.553Z,64.00
2022-11-20T10:42:57.013Z,67.80
2022-11-20T10:46:09.162Z,64.60
2022-11-20T10:48:36.605Z,69.00
2022-11-20T10:51:38.164Z,65.70
2022-11-20T11:01:03.172Z,66.50
2022-11-20T11:03:30.922Z,69.40
2022-11-20T11:06:42.736Z,70.50
2022-11-20T11:09:18.753Z,67.40
2022-11-20T11:11:45.694Z,68.50
2022-11-20T11:14:13.947Z,69.50
2022-11-20T11:16:51.373Z,67.20
2022-11-20T11:19:18.592Z,69.70
2022-11-20T11:21:54.989Z,69.90
2022-11-20T11:24:43.939Z,70.00
2022-11-20T11:27:17.823Z,70.10
2022-11-20T11:29:45.678Z,68.70
2022-11-20T11:32:18.451Z,69.60
2022-11-20T11:34:44.958Z,70.70
2022-11-20T11:37:23.424Z,71.60
2022-11-20T11:40:03.883Z,69.30
2022-11-20T11:42:54.737Z,69.10
2022-11-20T11:45:21.505Z,67.00
2022-11-20T11:47:52.145Z,68.20
2022-11-20T11:50:23.240Z,67.70
2022-11-20T11:56:22.711Z,68.00
2022-11-20T11:58:51.590Z,68.60
2022-11-20T12:01:39.230Z,67.20
2022-11-20T12:04:38.119Z,66.80
2022-11-20T12:07:44.317Z,68.40
2022-11-20T12:10:23.920Z,67.40
2022-11-20T12:13:13.500Z,67.90
2022-11-20T12:15:40.130Z,66.30
2022-11-20T12:18:11.010Z,64.70
2022-11-20T12:20:42.227Z,64.30
2022-11-20T12:23:57.245Z,64.70
2022-11-20T12:27:09.004Z,65.10
2022-11-20T12:30:12.009Z,65.70
2022-11-20T12:36:02.384Z,67.00
2022-11-20T12:38:40.386Z,69.20
2022-11-20T12:42:10.933Z,68.40
2022-11-20T12:45:12.955Z,67.50
2022-11-20T12:48:23.119Z,68.50
2022-11-20T12:53:45.441Z,68.00
2022-11-20T12:57:49.724Z,67.20
2022-11-20T13:00:21.689Z,68.90
2022-11-20T13:03:09.318Z,68.50
2022-11-20T13:07:28.399Z,68.40
2022-11-20T13:09:56.148Z,71.20
2022-11-20T13:12:36.574Z,69.70
2022-11-20T13:15:40.108Z,71.60
2022-11-20T13:18:12.943Z,70.30
2022-11-20T13:20:44.066Z,69.70
2022-11-20T13:23:10.717Z,71.40
2022-11-20T13:25:38.950Z,73.10
2022-11-20T13:28:48.509Z,71.10
2022-11-20T13:31:32.542Z,70.10
2022-11-20T13:33:59.345Z,69.80
2022-11-20T13:36:27.360Z,69.80
2022-11-20T13:38:56.058Z,69.50
2022-11-20T13:41:38.056Z,70.10
2022-11-20T13:44:46.580Z,70.70
2022-11-20T13:47:28.874Z,70.80
2022-11-20T13:50:00.574Z,69.90
2022-11-20T13:55:18.368Z,70.70
2022-11-20T13:59:15.171Z,72.20
2022-11-20T14:01:41.655Z,71.60
2022-11-20T14:04:09.556Z,73.40
2022-11-20T14:06:43.925Z,72.70
2022-11-20T14:09:15.062Z,73.50
2022-11-20T14:11:48.471Z,73.70
2022-11-20T14:14:18.071Z,74.70
2022-11-20T14:16:44.722Z,76.10
2022-11-20T14:20:12.899Z,76.50
2022-11-20T14:22:39.315Z,76.80
2022-11-20T14:26:07.216Z,76.00
2022-11-20T14:28:34.761Z,77.30
2022-11-20T14:31:01.489Z,76.80
2022-11-20T14:33:28.387Z,76.80
2022-11-20T14:35:55.905Z,77.50
2022-11-20T14:38:27.374Z,78.10
2022-11-20T14:40:54.685Z,78.50
2022-11-20T14:43:27.989Z,79.40
2022-11-20T14:46:03.692Z,80.00
2022-11-20T14:48:51.810Z,81.00
2022-11-20T14:51:43.054Z,82.30
2022-11-20T14:54:14.452Z,82.80
2022-11-20T14:56:40.776Z,83.70
2022-11-20T14:59:08.055Z,84.60
2022-11-20T15:01:34.484Z,85.20
2022-11-20T15:04:02.548Z,85.50
2022-11-20T15:06:30.292Z,85.10
2022-11-20T15:08:57.098Z,86.30
2022-11-20T15:11:34.835Z,87.80
2022-11-20T15:14:05.909Z,88.00
2022-11-20T15:16:32.299Z,88.40
2022-11-20T15:19:00.395Z,89.30
2022-11-20T15:21:27.204Z,90.00
2022-11-20T15:23:57.777Z,89.90
2022-11-20T15:26:27.836Z,89.70
2022-11-20T15:28:55.546Z,90.20
2022-11-20T15:31:24.057Z,90.50
2022-11-20T15:33:50.429Z,90.70
2022-11-20T15:36:17.122Z,90.80
2022-11-20T15:38:44.697Z,90.80
2022-11-20T15:41:11.784Z,90.80
2022-11-20T15:43:38.967Z,90.90
2022-11-20T15:46:19.713Z,90.80
2022-11-20T15:48:48.463Z,91.10
2022-11-20T15:52:01.583Z,91.50
2022-11-20T15:54:29.932Z,92.50
2022-11-20T15:56:57.828Z,92.20
2022-11-20T15:59:25.634Z,92.30
2022-11-20T16:01:53.253Z,92.60
2022-11-20T16:04:20.610Z,93.30
2022-11-20T16:06:47.762Z,93.50
2022-11-20T16:09:14.717Z,94.30
2022-11-20T16:11:43.019Z,94.30
2022-11-20T16:14:31.864Z,93.70
2022-11-20T16:16:58.968Z,93.30
2022-11-20T16:19:28.042Z,93.20
2022-11-20T16:21:59.621Z,93.40
2022-11-20T16:24:29.247Z,93.50
2022-11-20T16:26:56.587Z,93.60
2022-11-20T16:29:23.605Z,93.40
2022-11-20T16:31:50.069Z,93.60
2022-11-20T16:34:17.109Z,94.00
2022-11-20T16:36:46.922Z,94.10
2022-11-20T16:39:13.240Z,94.30
2022-11-20T16:41:39.707Z,94.60
2022-11-20T16:44:16.215Z,94.30
2022-11-20T16:46:43.247Z,94.30
2022-11-20T16:49:14.070Z,94.40
2022-11-20T16:51:40.906Z,94.50
2022-11-20T16:54:08.880Z,94.40
2022-11-20T16:56:39.612Z,94.40
2022-11-20T16:59:06.967Z,94.20
2022-11-20T17:01:33.688Z,94.40
2022-11-20T17:04:01.968Z,94.60
2022-11-20T17:06:30.265Z,94.40
2022-11-20T17:08:57.327Z,94.40
2022-11-20T17:11:24.625Z,94.20
2022-11-20T17:13:51.385Z,94.70
2022-11-20T17:16:21.583Z,94.80
2022-11-20T17:18:51.052Z,94.80
2022-11-20T17:21:18.804Z,95.30
2022-11-20T17:23:47.204Z,94.80
2022-11-20T17:26:17.263Z,94.80
2022-11-20T17:28:48.361Z,94.70
2022-11-20T17:31:19.608Z,94.60
2022-11-20T17:33:46.753Z,94.30
2022-11-20T17:36:17.834Z,94.00
2022-11-20T17:38:44.069Z,93.90
2022-11-20T17:41:18.318Z,93.80
2022-11-20T17:43:44.929Z,93.80
2022-11-20T17:46:13.057Z,94.00
2022-11-20T17:48:43.538Z,94.30
2022-11-20T17:51:20.519Z,94.90
2022-11-20T17:53:49.743Z,95.10
2022-11-20T17:56:34.440Z,95.20
2022-11-20T17:59:04.027Z,95.10
2022-11-20T18:01:30.199Z,95.70
2022-11-20T18:03:59.656Z,95.40
2022-11-20T18:06:27.667Z,95.80
2022-11-20T18:08:54.402Z,95.40
2022-11-20T18:11:30.754Z,95.80
2022-11-20T18:14:17.291Z,95.30
2022-11-20T18:16:51.842Z,95.10
2022-11-20T18:19:20.686Z,95.20
2022-11-20T18:21:48.016Z,95.30
2022-11-20T18:24:14.604Z,95.20
2022-11-20T18:26:44.261Z,95.50
2022-11-20T18:29:12.146Z,95.50
2022-11-20T18:31:38.986Z,96.40
2022-11-20T18:34:11.272Z,97.20
2022-11-20T18:36:37.802Z,96.90
2022-11-20T18:39:04.960Z,96.70
2022-11-20T18:41:49.528Z,96.40
2022-11-20T18:44:39.050Z,96.10
2022-11-20T18:47:14.630Z,96.20
2022-11-20T18:49:55.264Z,95.80
2022-11-20T18:52:38.890Z,95.40
2022-11-20T18:55:07.934Z,95.00
2022-11-20T18:57:34.291Z,95.00
